createdAt,value
2022-09-02T00:01:48.335Z,15.00
2022-09-02T00:04:34.567Z,13.70
2022-09-02T00:07:21.087Z,13.77
2022-09-02T00:10:08.885Z,13.27
2022-09-02T00:12:54.987Z,14.57
2022-09-02T00:15:41.308Z,13.17
2022-09-02T00:18:27.849Z,14.17
2022-09-02T00:21:15.337Z,13.47
2022-09-02T00:24:01.936Z,12.67
2022-09-02T00:26:49.708Z,13.97
2022-09-02T00:29:35.923Z,13.53
2022-09-02T00:32:22.096Z,13.87
2022-09-02T00:35:09.465Z,13.07
2022-09-02T00:37:55.858Z,13.03
2022-09-02T00:40:45.566Z,13.90
2022-09-02T00:43:42.254Z,13.50
2022-09-02T00:46:30.524Z,12.40
2022-09-02T00:49:19.091Z,13.53
2022-09-02T00:52:07.016Z,13.50
2022-09-02T00:54:57.142Z,13.70
2022-09-02T00:57:45.437Z,13.10
2022-09-02T01:00:38.927Z,12.67
2022-09-02T01:03:26.974Z,12.97
2022-09-02T01:06:15.530Z,13.73
2022-09-02T01:09:05.353Z,12.87
2022-09-02T01:11:53.633Z,13.07
2022-09-02T01:14:40.094Z,12.70
2022-09-02T01:17:28.158Z,12.23
2022-09-02T01:20:16.154Z,12.97
2022-09-02T01:23:03.692Z,13.70
2022-09-02T01:25:50.148Z,13.13
2022-09-02T01:28:37.278Z,13.03
2022-09-02T01:31:23.473Z,12.17
2022-09-02T01:34:11.398Z,12.23
2022-09-02T01:36:58.359Z,11.67
2022-09-02T01:39:46.285Z,12.70
2022-09-02T01:42:32.710Z,13.53
2022-09-02T01:45:19.080Z,13.53
2022-09-02T01:48:06.601Z,12.63
2022-09-02T01:50:57.708Z,13.43
2022-09-02T01:53:43.965Z,13.17
2022-09-02T01:56:31.726Z,14.07
2022-09-02T01:59:18.561Z,13.57
2022-09-02T02:02:05.296Z,13.50
2022-09-02T02:04:51.846Z,13.53
2022-09-02T02:07:38.030Z,13.13
2022-09-02T02:10:24.353Z,13.13
2022-09-02T02:13:12.321Z,13.70
2022-09-02T02:15:58.523Z,14.50
2022-09-02T02:18:44.892Z,14.67
2022-09-02T02:21:31.746Z,14.60
2022-09-02T02:24:18.892Z,14.47
2022-09-02T02:27:05.244Z,14.23
2022-09-02T02:29:53.094Z,14.83
2022-09-02T02:32:42.010Z,14.27
2022-09-02T02:35:28.142Z,14.17
2022-09-02T02:38:14.742Z,13.67
2022-09-02T02:41:02.070Z,14.27
2022-09-02T02:43:48.929Z,14.20
2022-09-02T02:46:36.861Z,14.37
2022-09-02T02:49:23.650Z,14.13
2022-09-02T02:52:10.333Z,14.27
2022-09-02T02:54:56.418Z,14.00
2022-09-02T02:57:43.301Z,14.70
2022-09-02T03:00:31.661Z,14.47
2022-09-02T03:03:19.941Z,14.30
2022-09-02T03:06:06.577Z,14.33
2022-09-02T03:08:53.571Z,13.93
2022-09-02T03:11:39.684Z,13.20
2022-09-02T03:14:26.282Z,13.17
2022-09-02T03:17:12.646Z,15.47
2022-09-02T03:20:00.054Z,15.87
2022-09-02T03:22:47.794Z,16.30
2022-09-02T03:25:36.136Z,12.30
2022-09-02T03:28:22.738Z,12.47
2022-09-02T03:31:09.503Z,12.17
2022-09-02T03:33:56.172Z,12.20
2022-09-02T03:36:45.214Z,13.23
2022-09-02T03:39:32.049Z,13.43
2022-09-02T03:42:19.750Z,12.63
2022-09-02T03:45:07.620Z,14.53
2022-09-02T03:47:54.570Z,14.13
2022-09-02T03:50:47.436Z,13.60
2022-09-02T03:53:35.312Z,13.50
2022-09-02T03:56:21.761Z,13.80
2022-09-02T03:59:08.726Z,14.63
2022-09-02T04:01:55.696Z,14.47
2022-09-02T04:04:42.300Z,15.13
2022-09-02T04:07:28.793Z,14.00
2022-09-02T04:10:16.681Z,14.17
2022-09-02T04:13:02.997Z,13.83
2022-09-02T04:15:49.758Z,13.40
2022-09-02T04:18:36.090Z,14.07
2022-09-02T04:21:22.251Z,14.13
2022-09-02T04:24:10.395Z,13.50
2022-09-02T04:27:02.000Z,14.27
2022-09-02T04:29:50.718Z,14.07
2022-09-02T04:32:40.711Z,13.87
2022-09-02T04:35:27.388Z,13.67
2022-09-02T04:38:14.252Z,14.73
2022-09-02T04:41:00.594Z,14.03
2022-09-02T04:43:48.220Z,13.13
2022-09-02T04:46:34.986Z,12.07
2022-09-02T04:49:21.601Z,12.50
2022-09-02T04:52:07.889Z,12.03
2022-09-02T04:54:54.429Z,12.03
2022-09-02T04:57:41.061Z,12.83
2022-09-02T05:00:28.890Z,12.67
2022-09-02T05:03:15.225Z,13.03
2022-09-02T05:06:01.943Z,12.90
2022-09-02T05:08:49.054Z,12.33
2022-09-02T05:11:35.146Z,13.20
2022-09-02T05:14:21.782Z,13.10
2022-09-02T05:17:09.684Z,12.37
2022-09-02T05:19:56.236Z,12.57
2022-09-02T05:22:43.357Z,12.47
2022-09-02T05:25:29.779Z,13.47
2022-09-02T05:28:16.640Z,11.50
2022-09-02T05:31:05.654Z,11.87
2022-09-02T05:33:54.177Z,9.63
2022-09-02T05:36:40.473Z,8.60
2022-09-02T05:39:27.003Z,8.30
2022-09-02T05:42:13.421Z,8.83
2022-09-02T05:44:59.510Z,8.47
2022-09-02T05:47:46.128Z,8.10
2022-09-02T05:50:34.030Z,6.00
2022-09-02T05:53:20.663Z,4.30
2022-09-02T05:56:07.430Z,4.13
2022-09-02T05:58:53.730Z,3.30
2022-09-02T06:01:41.686Z,2.47
2022-09-02T06:04:28.579Z,2.20
2022-09-02T06:07:16.816Z,2.30
2022-09-02T06:10:03.193Z,2.20
2022-09-02T06:12:49.278Z,2.10
2022-09-02T06:15:35.760Z,1.80
2022-09-02T06:18:23.251Z,2.33
2022-09-02T06:21:11.637Z,2.20
2022-09-02T06:23:59.152Z,1.80
2022-09-02T06:26:45.695Z,2.43
2022-09-02T06:29:36.494Z,2.10
2022-09-02T06:32:22.856Z,2.00
2022-09-02T06:35:10.820Z,2.13
2022-09-02T06:37:56.885Z,2.13
2022-09-02T06:40:49.506Z,2.10
2022-09-02T06:43:41.278Z,1.73
2022-09-02T06:46:30.652Z,1.83
2022-09-02T06:49:17.421Z,2.60
2022-09-02T06:52:05.574Z,1.90
2022-09-02T06:54:52.195Z,1.83
2022-09-02T06:57:39.996Z,1.60
2022-09-02T07:00:26.557Z,1.87
2022-09-02T07:03:30.049Z,2.07
2022-09-02T07:06:16.402Z,2.20
2022-09-02T07:09:02.923Z,2.13
2022-09-02T07:11:50.045Z,1.90
2022-09-02T07:14:39.700Z,1.83
2022-09-02T07:17:25.628Z,2.10
2022-09-02T07:20:12.297Z,1.80
2022-09-02T07:22:58.579Z,1.67
2022-09-02T07:25:45.097Z,1.40
2022-09-02T07:28:31.478Z,1.53
2022-09-02T07:31:18.918Z,1.43
2022-09-02T07:34:06.536Z,1.27
2022-09-02T07:36:52.759Z,1.87
2022-09-02T07:39:38.969Z,1.60
2022-09-02T07:42:25.405Z,1.57
2022-09-02T07:45:12.484Z,1.60
2022-09-02T07:48:00.421Z,1.23
2022-09-02T07:50:47.481Z,1.57
2022-09-02T07:53:33.997Z,1.30
2022-09-02T07:56:20.471Z,1.40
2022-09-02T07:59:06.498Z,1.50
2022-09-02T08:01:53.205Z,1.50
2022-09-02T08:04:41.324Z,1.90
2022-09-02T08:07:27.502Z,1.30
2022-09-02T08:10:14.729Z,1.57
2022-09-02T08:13:01.947Z,1.47
2022-09-02T08:15:50.957Z,1.47
2022-09-02T08:18:37.382Z,1.47
2022-09-02T08:21:25.746Z,1.57
2022-09-02T08:24:11.935Z,1.37
2022-09-02T08:26:58.110Z,1.60
2022-09-02T08:29:44.668Z,1.30
2022-09-02T08:32:32.948Z,1.23
2022-09-02T08:35:19.414Z,1.63
2022-09-02T08:38:07.076Z,1.70
2022-09-02T08:40:53.633Z,1.53
2022-09-02T08:43:41.021Z,1.50
2022-09-02T08:46:28.865Z,1.80
2022-09-02T08:49:17.852Z,1.17
2022-09-02T08:52:05.965Z,1.77
2022-09-02T08:54:55.659Z,1.50
2022-09-02T08:57:43.374Z,1.63
2022-09-02T09:00:35.717Z,1.53
2022-09-02T09:03:25.909Z,1.53
2022-09-02T09:06:16.092Z,1.40
2022-09-02T09:09:06.557Z,1.97
2022-09-02T09:11:59.336Z,1.63
2022-09-02T09:14:50.353Z,1.90
2022-09-02T09:17:41.253Z,1.33
2022-09-02T09:20:28.752Z,1.70
2022-09-02T09:23:26.596Z,1.60
2022-09-02T09:26:14.780Z,2.17
2022-09-02T09:29:04.898Z,1.50
2022-09-02T09:31:55.638Z,1.77
2022-09-02T09:35:01.606Z,1.40
2022-09-02T09:37:50.117Z,1.50
2022-09-02T09:40:38.398Z,1.53
2022-09-02T09:43:31.087Z,1.40
2022-09-02T09:46:28.821Z,1.50
2022-09-02T09:49:26.525Z,1.70
2022-09-02T09:52:12.705Z,1.73
2022-09-02T09:55:22.741Z,1.70
2022-09-02T09:58:12.509Z,1.60
2022-09-02T10:01:00.799Z,1.77
2022-09-02T10:03:52.580Z,1.40
2022-09-02T10:06:39.649Z,2.00
2022-09-02T10:09:30.224Z,1.87
2022-09-02T10:12:31.856Z,1.50
2022-09-02T10:15:20.758Z,1.90
2022-09-02T10:18:14.710Z,1.80
2022-09-02T10:21:15.871Z,1.40
2022-09-02T10:24:05.499Z,1.40
2022-09-02T10:26:55.579Z,1.70
2022-09-02T10:29:59.777Z,1.73
2022-09-02T10:32:59.517Z,1.80
2022-09-02T10:35:47.257Z,1.97
2022-09-02T10:38:37.959Z,1.87
2022-09-02T10:41:34.200Z,1.70
2022-09-02T10:44:25.000Z,2.00
2022-09-02T10:47:16.914Z,1.70
2022-09-02T10:50:07.440Z,2.17
2022-09-02T10:53:08.973Z,2.00
2022-09-02T10:56:00.430Z,2.10
2022-09-02T10:58:49.970Z,1.97
2022-09-02T11:01:39.508Z,1.70
2022-09-02T11:04:30.558Z,2.20
2022-09-02T11:07:18.885Z,2.10
2022-09-02T11:10:09.273Z,2.17
2022-09-02T11:13:00.942Z,2.57
2022-09-02T11:15:50.024Z,3.10
2022-09-02T11:18:45.240Z,2.80
2022-09-02T11:21:35.651Z,3.17
2022-09-02T11:24:24.466Z,2.83
2022-09-02T11:27:25.821Z,3.27
2022-09-02T11:30:21.713Z,4.87
2022-09-02T11:33:12.389Z,3.73
2022-09-02T11:35:59.657Z,2.03
2022-09-02T11:38:49.664Z,2.87
2022-09-02T11:41:45.080Z,1.90
2022-09-02T11:44:51.140Z,2.10
2022-09-02T11:47:50.291Z,2.00
2022-09-02T11:50:57.534Z,2.17
2022-09-02T11:53:45.189Z,1.97
2022-09-02T11:56:36.781Z,1.90
2022-09-02T11:59:23.951Z,1.83
2022-09-02T12:02:10.383Z,2.50
2022-09-02T12:05:24.096Z,2.37
2022-09-02T12:08:13.111Z,2.13
2022-09-02T12:11:02.193Z,2.57
2022-09-02T12:16:37.851Z,2.10
2022-09-02T12:19:41.627Z,2.07
2022-09-02T12:22:39.978Z,2.63
2022-09-02T12:25:44.632Z,2.90
2022-09-02T12:28:31.706Z,2.07
2022-09-02T12:31:40.597Z,2.20
2022-09-02T12:34:46.875Z,2.23
2022-09-02T12:37:58.417Z,4.00
2022-09-02T12:40:55.648Z,4.17
2022-09-02T12:43:48.761Z,2.90
2022-09-02T12:46:46.521Z,2.50
2022-09-02T12:49:44.590Z,3.07
2022-09-02T12:52:42.578Z,2.30
2022-09-02T12:55:31.231Z,2.60
2022-09-02T12:58:22.075Z,2.17
2022-09-02T13:01:15.174Z,2.07
2022-09-02T13:04:14.420Z,2.53
2022-09-02T13:07:24.020Z,2.70
2022-09-02T13:10:29.866Z,2.37
2022-09-02T13:13:26.026Z,2.80
2022-09-02T13:16:15.624Z,1.97
2022-09-02T13:19:22.843Z,2.20
2022-09-02T13:22:20.751Z,2.30
2022-09-02T13:25:26.149Z,2.83
2022-09-02T13:28:23.930Z,2.03
2022-09-02T13:31:15.705Z,2.50
2022-09-02T13:34:05.413Z,2.10
2022-09-02T13:36:52.222Z,3.03
2022-09-02T13:39:40.723Z,3.17
2022-09-02T13:42:27.878Z,2.63
2022-09-02T13:45:20.811Z,2.17
2022-09-02T13:48:11.162Z,2.87
2022-09-02T13:50:58.407Z,3.47
2022-09-02T13:54:05.595Z,5.83
2022-09-02T13:56:52.613Z,2.90
2022-09-02T13:59:40.007Z,2.20
2022-09-02T14:02:27.821Z,2.37
2022-09-02T14:05:17.777Z,2.13
2022-09-02T14:08:05.302Z,1.97
2022-09-02T14:10:53.907Z,1.80
2022-09-02T14:13:43.490Z,2.03
2022-09-02T14:16:33.575Z,1.60
2022-09-02T14:19:26.516Z,2.27
2022-09-02T14:22:22.435Z,1.63
2022-09-02T14:25:09.858Z,1.87
2022-09-02T14:27:57.328Z,1.90
2022-09-02T14:30:44.172Z,1.90
2022-09-02T14:33:41.397Z,2.27
2022-09-02T14:36:35.155Z,1.80
2022-09-02T14:39:22.633Z,2.03
2022-09-02T14:42:09.067Z,1.97
2022-09-02T14:44:55.682Z,2.30
2022-09-02T14:47:42.068Z,2.00
2022-09-02T14:50:29.876Z,1.80
2022-09-02T14:53:21.793Z,2.10
2022-09-02T14:56:09.646Z,2.27
2022-09-02T14:58:55.619Z,1.80
2022-09-02T15:01:42.311Z,2.27
2022-09-02T15:04:28.785Z,2.00
2022-09-02T15:07:15.401Z,1.67
2022-09-02T15:10:01.712Z,1.87
2022-09-02T15:12:50.843Z,2.00
2022-09-02T15:15:36.965Z,2.50
2022-09-02T15:18:23.448Z,1.80
2022-09-02T15:21:10.431Z,1.97
2022-09-02T15:23:57.565Z,1.53
2022-09-02T15:26:43.715Z,1.83
2022-09-02T15:29:31.926Z,2.37
2022-09-02T15:32:18.588Z,1.60
2022-09-02T15:35:04.850Z,1.50
2022-09-02T15:37:51.215Z,1.93
2022-09-02T15:40:37.506Z,1.90
2022-09-02T15:43:23.834Z,1.80
2022-09-02T15:46:19.840Z,1.97
2022-09-02T15:49:07.153Z,1.80
2022-09-02T15:51:55.263Z,1.40
2022-09-02T15:54:41.816Z,2.23
2022-09-02T15:57:28.186Z,2.07
2022-09-02T16:00:14.858Z,1.70
2022-09-02T16:03:02.826Z,1.20
2022-09-02T16:05:49.072Z,1.73
2022-09-02T16:08:35.386Z,1.50
2022-09-02T16:11:21.867Z,2.17
2022-09-02T16:14:07.926Z,1.53
2022-09-02T16:16:55.874Z,1.77
2022-09-02T16:19:43.789Z,1.43
2022-09-02T16:22:29.754Z,1.50
2022-09-02T16:25:16.278Z,1.63
2022-09-02T16:28:02.682Z,2.33
2022-09-02T16:30:48.649Z,1.93
2022-09-02T16:33:35.357Z,1.57
2022-09-02T16:36:24.037Z,1.67
2022-09-02T16:39:14.519Z,1.87
2022-09-02T16:42:04.239Z,1.50
2022-09-02T16:44:51.691Z,3.20
2022-09-02T16:47:38.204Z,4.23
2022-09-02T16:50:25.008Z,3.53
2022-09-02T16:53:12.794Z,3.20
2022-09-02T16:55:58.906Z,2.77
2022-09-02T16:58:45.005Z,7.00
2022-09-02T17:01:32.501Z,3.83
2022-09-02T17:04:19.131Z,7.03
2022-09-02T17:07:05.402Z,3.43
2022-09-02T17:09:53.046Z,3.50
2022-09-02T17:12:42.841Z,3.67
2022-09-02T17:15:30.334Z,3.20
2022-09-02T17:18:16.559Z,3.27
2022-09-02T17:21:14.427Z,2.97
2022-09-02T17:24:01.056Z,3.40
2022-09-02T17:26:50.654Z,4.27
2022-09-02T17:29:52.694Z,3.40
2022-09-02T17:32:39.448Z,3.30
2022-09-02T17:35:26.866Z,4.23
2022-09-02T17:38:13.174Z,4.43
2022-09-02T17:41:16.671Z,4.20
2022-09-02T17:44:04.787Z,4.27
2022-09-02T17:46:51.326Z,8.17
2022-09-02T17:49:38.256Z,6.30
2022-09-02T17:52:24.970Z,4.40
2022-09-02T17:55:11.265Z,5.03
2022-09-02T17:58:04.645Z,4.30
2022-09-02T18:00:54.897Z,4.50
2022-09-02T18:03:46.032Z,4.30
2022-09-02T18:06:35.508Z,4.60
2022-09-02T18:09:23.414Z,5.23
2022-09-02T18:12:12.108Z,4.50
2022-09-02T18:14:59.578Z,4.47
2022-09-02T18:17:49.090Z,4.57
2022-09-02T18:20:40.079Z,5.20
2022-09-02T18:23:35.779Z,5.00
2022-09-02T18:26:25.886Z,5.30
2022-09-02T18:29:18.158Z,4.63
2022-09-02T18:32:13.191Z,5.00
2022-09-02T18:35:05.926Z,5.10
2022-09-02T18:37:57.695Z,4.63
2022-09-02T18:40:51.543Z,5.30
2022-09-02T18:43:44.170Z,5.40
2022-09-02T18:46:35.332Z,5.30
2022-09-02T18:49:25.565Z,5.03
2022-09-02T18:52:13.036Z,5.10
2022-09-02T18:55:02.814Z,4.73
2022-09-02T18:57:52.319Z,4.50
2022-09-02T19:00:44.466Z,5.03
2022-09-02T19:03:34.616Z,4.97
2022-09-02T19:06:22.458Z,4.97
2022-09-02T19:09:12.545Z,5.23
2022-09-02T19:11:59.779Z,4.20
2022-09-02T19:14:46.979Z,5.07
2022-09-02T19:17:33.205Z,5.27
2022-09-02T19:20:19.452Z,4.70
2022-09-02T19:23:06.759Z,4.33
2022-09-02T19:25:54.686Z,4.80
2022-09-02T19:28:42.135Z,4.70
2022-09-02T19:31:29.611Z,5.03
2022-09-02T19:34:17.431Z,4.37
2022-09-02T19:37:04.802Z,4.87
2022-09-02T19:39:51.422Z,4.90
2022-09-02T19:42:39.065Z,4.70
2022-09-02T19:45:29.165Z,4.80
2022-09-02T19:48:15.813Z,4.87
2022-09-02T19:51:02.046Z,4.40
2022-09-02T19:53:48.674Z,4.40
2022-09-02T19:56:34.710Z,4.97
2022-09-02T19:59:22.446Z,4.67
2022-09-02T20:02:09.092Z,4.23
2022-09-02T20:04:55.424Z,4.93
2022-09-02T20:07:42.029Z,5.00
2022-09-02T20:10:30.011Z,5.37
2022-09-02T20:13:16.952Z,5.00
2022-09-02T20:16:06.026Z,5.40
2022-09-02T20:18:53.227Z,6.87
2022-09-02T20:21:43.702Z,6.07
2022-09-02T20:24:31.311Z,5.73
2022-09-02T20:27:23.331Z,6.83
2022-09-02T20:30:10.810Z,6.20
2022-09-02T20:32:59.020Z,6.27
2022-09-02T20:36:06.439Z,5.80
2022-09-02T20:39:01.147Z,5.40
2022-09-02T20:41:51.973Z,5.60
2022-09-02T20:44:49.514Z,5.73
2022-09-02T20:47:42.041Z,6.10
2022-09-02T20:50:41.269Z,5.97
2022-09-02T20:53:37.287Z,6.50
2022-09-02T20:56:25.937Z,5.97
2022-09-02T20:59:17.133Z,5.87
2022-09-02T21:02:05.586Z,6.07
2022-09-02T21:04:54.786Z,5.60
2022-09-02T21:07:45.613Z,6.13
2022-09-02T21:10:34.204Z,6.23
2022-09-02T21:13:22.723Z,5.67
2022-09-02T21:16:12.560Z,4.83
2022-09-02T21:19:09.528Z,4.80
2022-09-02T21:21:57.810Z,4.43
2022-09-02T21:24:48.932Z,4.87
2022-09-02T21:27:37.200Z,4.70
2022-09-02T21:30:25.316Z,4.47
2022-09-02T21:33:13.348Z,4.67
2022-09-02T21:36:01.086Z,4.37
2022-09-02T21:38:47.913Z,3.97
2022-09-02T21:41:37.125Z,4.57
2022-09-02T21:44:27.978Z,4.00
2022-09-02T21:47:19.931Z,4.33
2022-09-02T21:50:10.171Z,4.40
2022-09-02T21:53:01.735Z,4.47
2022-09-02T21:55:53.963Z,4.70
2022-09-02T21:58:51.091Z,4.57
2022-09-02T22:01:44.536Z,4.43
2022-09-02T22:04:39.817Z,4.30
2022-09-02T22:07:29.211Z,4.77
2022-09-02T22:10:18.999Z,4.70
2022-09-02T22:13:06.635Z,5.20
2022-09-02T22:16:01.277Z,4.83
2022-09-02T22:18:52.342Z,4.90
2022-09-02T22:21:43.746Z,4.93
2022-09-02T22:24:31.257Z,5.50
2022-09-02T22:27:19.188Z,5.30
2022-09-02T22:30:08.018Z,4.80
2022-09-02T22:32:58.859Z,4.97
2022-09-02T22:35:54.465Z,5.50
2022-09-02T22:38:44.231Z,5.47
2022-09-02T22:41:35.176Z,4.90
2022-09-02T22:44:23.910Z,5.50
2022-09-02T22:47:27.471Z,5.10
2022-09-02T22:50:35.265Z,5.47
2022-09-02T22:53:21.538Z,5.70
2022-09-02T22:56:11.386Z,4.97
2022-09-02T22:59:15.989Z,5.27
2022-09-02T23:02:06.418Z,5.50
2022-09-02T23:05:04.566Z,5.63
2022-09-02T23:07:52.054Z,5.00
2022-09-02T23:10:41.698Z,5.80
2022-09-02T23:13:37.334Z,5.43
2022-09-02T23:16:30.719Z,4.90
2022-09-02T23:19:22.208Z,5.03
2022-09-02T23:22:12.018Z,5.20
2022-09-02T23:25:04.306Z,5.27
2022-09-02T23:27:54.293Z,5.07
2022-09-02T23:30:44.838Z,5.50
2022-09-02T23:33:41.057Z,4.83
2022-09-02T23:36:35.292Z,5.20
2022-09-02T23:39:27.860Z,5.33
2022-09-02T23:42:16.462Z,4.57
2022-09-02T23:45:08.466Z,4.97
2022-09-02T23:48:09.929Z,4.30
2022-09-02T23:51:03.288Z,2.77
2022-09-02T23:53:59.091Z,2.20
2022-09-02T23:56:57.997Z,1.97
2022-09-02T23:59:50.703Z,1.60
